createdAt,value
2023-05-22T00:01:46.729Z,23.67
2023-05-22T00:04:21.643Z,24.75
2023-05-22T00:06:50.145Z,24.23
2023-05-22T00:09:18.188Z,24.83
2023-05-22T00:11:46.044Z,23.30
2023-05-22T00:14:14.464Z,24.30
2023-05-22T00:16:42.348Z,22.92
2023-05-22T00:19:13.559Z,23.08
2023-05-22T00:21:42.983Z,23.13
2023-05-22T00:24:10.904Z,22.90
2023-05-22T00:26:38.794Z,22.90
2023-05-22T00:29:06.741Z,23.23
2023-05-22T00:31:34.524Z,23.52
2023-05-22T00:34:02.429Z,24.05
2023-05-22T00:36:30.349Z,24.02
2023-05-22T00:38:59.484Z,21.85
2023-05-22T00:41:27.275Z,22.77
2023-05-22T00:43:55.215Z,22.58
2023-05-22T00:46:24.547Z,22.40
2023-05-22T00:48:52.842Z,22.30
2023-05-22T00:51:21.444Z,22.17
2023-05-22T00:53:49.501Z,22.13
2023-05-22T00:56:18.872Z,22.83
2023-05-22T00:58:46.724Z,21.33
2023-05-22T01:01:15.018Z,20.63
2023-05-22T01:03:44.777Z,21.15
2023-05-22T01:06:14.139Z,22.20
2023-05-22T01:08:43.809Z,21.58
2023-05-22T01:11:15.348Z,20.45
2023-05-22T01:13:50.297Z,20.63
2023-05-22T01:16:26.181Z,20.38
2023-05-22T01:19:00.862Z,20.23
2023-05-22T01:21:34.109Z,20.70
2023-05-22T01:24:36.151Z,19.88
2023-05-22T01:27:26.030Z,20.40
2023-05-22T01:30:05.208Z,21.27
2023-05-22T01:35:03.683Z,20.60
2023-05-22T01:37:32.171Z,21.05
2023-05-22T01:40:00.496Z,20.45
2023-05-22T01:42:28.610Z,20.27
2023-05-22T01:44:56.386Z,20.37
2023-05-22T01:47:24.198Z,20.10
2023-05-22T01:49:53.476Z,20.23
2023-05-22T01:52:26.699Z,20.55
2023-05-22T01:54:59.680Z,19.58
2023-05-22T01:57:29.882Z,21.60
2023-05-22T02:00:02.431Z,20.52
2023-05-22T02:02:30.722Z,20.98
2023-05-22T02:05:01.194Z,21.60
2023-05-22T02:07:30.208Z,21.30
2023-05-22T02:12:26.242Z,20.17
2023-05-22T02:14:54.110Z,20.58
2023-05-22T02:17:22.083Z,20.33
2023-05-22T02:19:49.920Z,21.08
2023-05-22T02:22:19.161Z,20.30
2023-05-22T02:24:50.039Z,20.95
2023-05-22T02:27:18.007Z,19.75
2023-05-22T02:29:45.712Z,19.48
2023-05-22T02:32:13.519Z,19.48
2023-05-22T02:34:42.107Z,20.58
2023-05-22T02:37:09.922Z,19.90
2023-05-22T02:39:39.071Z,21.23
2023-05-22T02:42:07.590Z,20.77
2023-05-22T02:44:35.346Z,21.58
2023-05-22T02:47:03.216Z,19.88
2023-05-22T02:49:30.971Z,19.38
2023-05-22T02:51:58.856Z,21.02
2023-05-22T02:54:26.621Z,20.70
2023-05-22T02:56:55.856Z,20.20
2023-05-22T02:59:23.729Z,20.80
2023-05-22T03:01:51.694Z,20.05
2023-05-22T03:04:19.455Z,20.23
2023-05-22T03:06:47.298Z,19.65
2023-05-22T03:09:15.999Z,20.60
2023-05-22T03:11:43.812Z,19.45
2023-05-22T03:14:12.911Z,19.77
2023-05-22T03:16:41.514Z,20.05
2023-05-22T03:19:10.629Z,21.15
2023-05-22T03:24:06.608Z,20.20
2023-05-22T03:26:34.662Z,20.25
2023-05-22T03:29:02.442Z,20.45
2023-05-22T03:31:33.727Z,19.70
2023-05-22T03:34:01.633Z,20.20
2023-05-22T03:36:31.751Z,20.55
2023-05-22T03:39:00.182Z,19.92
2023-05-22T03:41:28.036Z,19.88
2023-05-22T03:43:55.921Z,20.90
2023-05-22T03:46:23.805Z,20.10
2023-05-22T03:48:53.032Z,19.95
2023-05-22T03:51:20.778Z,20.23
2023-05-22T03:53:48.632Z,19.88
2023-05-22T03:56:17.143Z,20.58
2023-05-22T03:58:44.896Z,21.08
2023-05-22T04:01:13.887Z,20.88
2023-05-22T04:06:10.866Z,22.55
2023-05-22T04:08:38.721Z,22.23
2023-05-22T04:11:08.362Z,21.42
2023-05-22T04:13:36.199Z,21.98
2023-05-22T04:16:04.513Z,22.08
2023-05-22T04:18:32.375Z,23.40
2023-05-22T04:21:00.204Z,22.13
2023-05-22T04:23:29.366Z,22.70
2023-05-22T04:25:58.275Z,22.17
2023-05-22T04:28:26.746Z,21.75
2023-05-22T04:33:22.719Z,23.45
2023-05-22T04:35:50.808Z,22.35
2023-05-22T04:38:19.106Z,22.03
2023-05-22T04:40:48.517Z,22.15
2023-05-22T04:43:18.704Z,22.10
2023-05-22T04:45:46.560Z,21.83
2023-05-22T04:48:15.397Z,22.70
2023-05-22T04:50:46.343Z,22.40
2023-05-22T04:53:14.159Z,22.52
2023-05-22T04:55:41.999Z,22.65
2023-05-22T04:58:11.246Z,21.98
2023-05-22T05:00:39.221Z,22.90
2023-05-22T05:03:08.441Z,22.90
2023-05-22T05:05:36.352Z,22.17
2023-05-22T05:08:04.164Z,22.63
2023-05-22T05:10:31.983Z,22.70
2023-05-22T05:12:59.772Z,23.27
2023-05-22T05:15:29.429Z,24.73
2023-05-22T05:17:57.281Z,23.20
2023-05-22T05:20:25.380Z,23.50
2023-05-22T05:22:53.157Z,23.07
2023-05-22T05:25:21.000Z,24.08
2023-05-22T05:27:48.813Z,24.25
2023-05-22T05:30:17.634Z,24.95
2023-05-22T05:32:48.822Z,25.00
2023-05-22T05:35:16.833Z,23.35
2023-05-22T05:37:44.587Z,24.30
2023-05-22T05:40:13.517Z,24.73
2023-05-22T05:45:10.006Z,23.70
2023-05-22T05:50:07.673Z,23.58
2023-05-22T05:52:35.485Z,24.33
2023-05-22T05:55:03.464Z,24.20
2023-05-22T05:57:32.072Z,23.43
2023-05-22T05:59:59.879Z,24.58
2023-05-22T06:02:27.754Z,24.38
2023-05-22T06:04:56.041Z,24.77
2023-05-22T06:07:25.346Z,25.77
2023-05-22T06:09:53.109Z,24.17
2023-05-22T06:12:21.335Z,25.02
2023-05-22T06:14:49.116Z,25.20
2023-05-22T06:17:16.969Z,23.77
2023-05-22T06:19:44.754Z,23.60
2023-05-22T06:22:12.529Z,23.58
2023-05-22T06:24:41.803Z,24.83
2023-05-22T06:27:09.690Z,23.67
2023-05-22T06:29:37.459Z,25.08
2023-05-22T06:32:06.006Z,23.07
2023-05-22T06:34:33.989Z,24.25
2023-05-22T06:37:01.777Z,23.77
2023-05-22T06:39:31.143Z,24.85
2023-05-22T06:42:01.104Z,24.58
2023-05-22T06:44:28.931Z,26.90
2023-05-22T06:46:56.730Z,24.23
2023-05-22T06:49:24.563Z,25.37
2023-05-22T06:51:52.325Z,25.77
2023-05-22T06:54:21.481Z,23.87
2023-05-22T06:56:49.255Z,24.05
2023-05-22T06:59:18.468Z,24.93
2023-05-22T07:01:46.358Z,23.50
2023-05-22T07:04:15.277Z,24.65
2023-05-22T07:06:43.477Z,26.02
2023-05-22T07:09:13.904Z,24.75
2023-05-22T07:11:42.861Z,25.20
2023-05-22T07:14:12.494Z,24.08
2023-05-22T07:16:42.058Z,26.05
2023-05-22T07:19:11.486Z,24.92
2023-05-22T07:21:39.655Z,24.85
2023-05-22T07:24:09.145Z,25.17
2023-05-22T07:26:37.024Z,25.00
2023-05-22T07:29:05.828Z,24.40
2023-05-22T07:31:34.457Z,24.85
2023-05-22T07:34:03.723Z,25.20
2023-05-22T07:36:31.914Z,25.13
2023-05-22T07:38:59.720Z,25.92
2023-05-22T07:41:28.359Z,27.05
2023-05-22T07:43:56.156Z,25.33
2023-05-22T07:46:23.996Z,25.50
2023-05-22T07:48:51.837Z,28.50
2023-05-22T07:51:21.042Z,27.17
2023-05-22T07:53:48.980Z,27.27
2023-05-22T07:56:17.640Z,27.38
2023-05-22T07:58:48.110Z,27.20
2023-05-22T08:01:16.552Z,27.27
2023-05-22T08:03:44.579Z,27.00
2023-05-22T08:06:12.567Z,28.25
2023-05-22T08:08:41.836Z,28.83
2023-05-22T08:11:09.828Z,30.38
2023-05-22T08:13:38.738Z,29.75
2023-05-22T08:16:07.050Z,29.70
2023-05-22T08:18:35.598Z,29.15
2023-05-22T08:21:03.416Z,30.08
2023-05-22T08:26:00.324Z,30.20
2023-05-22T08:28:28.065Z,31.08
2023-05-22T08:30:56.090Z,30.98
2023-05-22T08:33:24.352Z,30.90
2023-05-22T08:35:52.121Z,30.80
2023-05-22T08:38:19.924Z,29.67
2023-05-22T08:40:49.814Z,30.90
2023-05-22T08:43:21.225Z,30.73
2023-05-22T08:45:55.937Z,32.00
2023-05-22T08:48:24.791Z,31.35
2023-05-22T08:50:57.436Z,31.20
2023-05-22T08:53:26.652Z,30.55
2023-05-22T08:55:54.793Z,31.23
2023-05-22T09:00:51.750Z,29.23
2023-05-22T09:03:21.549Z,30.67
2023-05-22T09:05:50.491Z,29.60
2023-05-22T09:08:20.892Z,30.98
2023-05-22T09:10:49.288Z,30.40
2023-05-22T09:13:28.230Z,30.60
2023-05-22T09:16:00.570Z,31.15
2023-05-22T09:18:29.899Z,30.25
2023-05-22T09:21:04.926Z,30.58
2023-05-22T09:23:35.049Z,30.37
2023-05-22T09:28:35.991Z,31.60
2023-05-22T09:31:04.625Z,31.63
2023-05-22T09:33:33.242Z,33.10
2023-05-22T09:36:01.572Z,32.22
2023-05-22T09:38:30.838Z,32.65
2023-05-22T09:40:58.692Z,32.17
2023-05-22T09:43:26.505Z,32.30
2023-05-22T09:46:01.976Z,31.98
2023-05-22T09:48:30.327Z,32.53
2023-05-22T09:51:01.819Z,31.52
2023-05-22T09:53:29.961Z,30.63
2023-05-22T10:00:56.167Z,31.45
2023-05-22T10:03:27.100Z,31.52
2023-05-22T10:05:56.862Z,31.45
2023-05-22T10:08:26.942Z,31.38
2023-05-22T10:10:54.761Z,30.27
2023-05-22T10:13:23.060Z,30.55
2023-05-22T10:18:19.305Z,31.17
2023-05-22T10:20:49.039Z,31.15
2023-05-22T10:23:16.983Z,29.38
2023-05-22T10:25:45.021Z,31.10
2023-05-22T10:28:17.789Z,29.70
2023-05-22T10:30:50.842Z,28.58
2023-05-22T10:33:21.397Z,27.42
2023-05-22T10:35:57.490Z,29.40
2023-05-22T10:38:52.196Z,30.60
2023-05-22T10:41:20.080Z,28.00
2023-05-22T10:43:50.700Z,29.10
2023-05-22T10:46:19.298Z,28.25
2023-05-22T10:48:48.313Z,29.33
2023-05-22T10:51:21.280Z,28.35
2023-05-22T10:53:53.209Z,30.90
2023-05-22T10:56:23.603Z,28.67
2023-05-22T10:59:02.659Z,29.35
2023-05-22T11:01:30.498Z,29.67
2023-05-22T11:03:59.437Z,29.70
2023-05-22T11:06:39.385Z,28.63
2023-05-22T11:09:21.749Z,27.88
2023-05-22T11:12:11.032Z,28.90
2023-05-22T11:14:40.223Z,30.13
2023-05-22T11:17:08.252Z,31.30
2023-05-22T11:22:04.658Z,30.80
2023-05-22T11:24:34.150Z,32.85
2023-05-22T11:27:02.878Z,29.77
2023-05-22T11:29:30.685Z,29.00
2023-05-22T11:32:00.240Z,30.02
2023-05-22T11:34:28.255Z,31.52
2023-05-22T11:36:59.119Z,30.08
2023-05-22T11:39:27.138Z,32.05
2023-05-22T11:41:54.949Z,31.58
2023-05-22T11:44:22.916Z,31.15
2023-05-22T11:46:51.129Z,32.60
2023-05-22T11:51:52.996Z,31.48
2023-05-22T11:54:22.231Z,32.05
2023-05-22T11:56:50.067Z,31.67
2023-05-22T11:59:17.810Z,31.77
2023-05-22T12:01:45.565Z,30.88
2023-05-22T12:04:13.945Z,30.17
2023-05-22T12:06:43.496Z,31.85
2023-05-22T12:09:11.554Z,30.38
2023-05-22T12:11:39.493Z,29.73
2023-05-22T12:14:07.564Z,30.95
2023-05-22T12:16:38.838Z,31.85
2023-05-22T12:19:07.983Z,30.42
2023-05-22T12:21:36.601Z,31.80
2023-05-22T12:24:06.786Z,30.60
2023-05-22T12:26:34.694Z,32.30
2023-05-22T12:29:02.765Z,30.83
2023-05-22T12:31:35.902Z,30.40
2023-05-22T12:34:05.516Z,30.55
2023-05-22T12:36:35.217Z,30.90
2023-05-22T12:39:03.404Z,29.17
2023-05-22T12:44:02.038Z,31.25
2023-05-22T12:46:30.867Z,30.95
2023-05-22T12:48:58.722Z,30.08
2023-05-22T12:51:29.121Z,31.02
2023-05-22T12:53:57.085Z,31.55
2023-05-22T12:56:24.913Z,31.38
2023-05-22T12:58:54.369Z,30.48
2023-05-22T13:01:24.397Z,31.88
2023-05-22T13:03:52.911Z,30.67
2023-05-22T13:06:21.367Z,31.58
2023-05-22T13:08:49.193Z,30.13
2023-05-22T13:11:17.327Z,30.55
2023-05-22T13:16:14.092Z,29.65
2023-05-22T13:18:41.863Z,30.17
2023-05-22T13:21:09.679Z,29.88
2023-05-22T13:23:37.575Z,30.95
2023-05-22T13:26:21.517Z,29.73
2023-05-22T13:28:51.794Z,29.45
2023-05-22T13:31:21.154Z,27.95
2023-05-22T13:33:49.156Z,29.25
2023-05-22T13:38:44.565Z,28.88
2023-05-22T13:41:12.422Z,29.13
2023-05-22T13:43:40.187Z,29.67
2023-05-22T13:46:08.243Z,28.65
2023-05-22T13:51:05.257Z,27.70
2023-05-22T13:56:01.962Z,27.50
2023-05-22T13:58:29.755Z,27.23
2023-05-22T14:00:57.619Z,27.75
2023-05-22T14:03:25.437Z,27.48
2023-05-22T14:05:54.681Z,27.27
2023-05-22T14:08:22.508Z,26.65
2023-05-22T14:10:50.326Z,25.98
2023-05-22T14:13:18.127Z,24.15
2023-05-22T14:15:47.234Z,25.90
2023-05-22T14:18:16.503Z,25.35
2023-05-22T14:20:44.595Z,24.35
2023-05-22T14:23:14.478Z,24.63
2023-05-22T14:25:43.305Z,25.60
2023-05-22T14:28:11.432Z,24.70
2023-05-22T14:33:07.280Z,24.00
2023-05-22T14:38:03.000Z,23.02
2023-05-22T14:40:32.248Z,22.98
2023-05-22T14:43:00.164Z,22.98
2023-05-22T14:45:27.951Z,24.60
2023-05-22T14:47:55.902Z,23.02
2023-05-22T14:50:23.780Z,23.05
2023-05-22T14:52:51.702Z,22.67
2023-05-22T14:55:21.096Z,23.35
2023-05-22T14:57:50.317Z,22.23
2023-05-22T15:00:18.679Z,22.40
2023-05-22T15:05:14.322Z,22.75
2023-05-22T15:07:45.359Z,23.30
2023-05-22T15:10:13.972Z,22.90
2023-05-22T15:12:41.754Z,23.08
2023-05-22T15:15:12.106Z,23.25
2023-05-22T15:17:42.680Z,23.77
2023-05-22T15:20:11.988Z,24.58
2023-05-22T15:22:39.812Z,23.10
2023-05-22T15:25:09.697Z,24.60
2023-05-22T15:27:37.620Z,23.73
2023-05-22T15:30:06.671Z,25.00
2023-05-22T15:32:36.470Z,25.30
2023-05-22T15:35:05.542Z,24.60
2023-05-22T15:37:33.847Z,25.15
2023-05-22T15:40:02.408Z,25.08
2023-05-22T15:42:30.638Z,25.70
2023-05-22T15:44:59.644Z,26.55
2023-05-22T15:47:27.443Z,24.55
2023-05-22T15:49:56.665Z,23.88
2023-05-22T15:52:24.673Z,24.67
2023-05-22T15:54:53.187Z,24.58
2023-05-22T15:57:21.753Z,24.05
2023-05-22T15:59:50.870Z,22.98
2023-05-22T16:02:19.355Z,25.40
2023-05-22T16:07:17.100Z,24.92
2023-05-22T16:09:44.808Z,24.90
2023-05-22T16:12:12.595Z,25.15
2023-05-22T16:14:40.549Z,23.13
2023-05-22T16:17:08.478Z,23.08
2023-05-22T16:19:36.420Z,22.02
2023-05-22T16:22:04.314Z,21.83
2023-05-22T16:24:33.502Z,22.77
2023-05-22T16:27:01.384Z,22.60
2023-05-22T16:29:29.163Z,22.03
2023-05-22T16:31:57.607Z,32.13
2023-05-22T16:34:25.535Z,34.55
2023-05-22T16:36:53.329Z,32.97
2023-05-22T16:39:21.148Z,30.40
2023-05-22T16:41:52.838Z,29.33
2023-05-22T16:44:21.502Z,28.17
2023-05-22T16:46:49.865Z,28.00
2023-05-22T16:49:17.769Z,29.80
2023-05-22T16:51:45.623Z,25.63
2023-05-22T16:54:13.566Z,27.40
2023-05-22T16:56:41.365Z,27.08
2023-05-22T16:59:10.511Z,26.98
2023-05-22T17:01:38.495Z,28.25
2023-05-22T17:04:06.381Z,24.30
2023-05-22T17:06:35.456Z,25.95
2023-05-22T17:09:03.563Z,27.77
2023-05-22T17:11:31.457Z,26.85
2023-05-22T17:13:59.261Z,26.10
2023-05-22T17:16:28.430Z,26.77
2023-05-22T17:18:56.285Z,26.30
2023-05-22T17:21:24.301Z,26.58
2023-05-22T17:23:52.270Z,25.23
2023-05-22T17:26:20.380Z,26.25
2023-05-22T17:28:48.217Z,26.07
2023-05-22T17:31:16.320Z,25.92
2023-05-22T17:33:45.518Z,26.93
2023-05-22T17:36:13.427Z,26.80
2023-05-22T17:38:41.284Z,27.25
2023-05-22T17:41:09.073Z,28.05
2023-05-22T17:43:38.223Z,27.90
2023-05-22T17:46:06.498Z,26.23
2023-05-22T17:48:34.570Z,27.00
2023-05-22T17:51:04.047Z,27.60
2023-05-22T17:53:34.805Z,27.83
2023-05-22T17:56:03.542Z,27.10
2023-05-22T17:58:31.358Z,28.40
2023-05-22T18:00:59.195Z,25.90
2023-05-22T18:03:27.266Z,27.25
2023-05-22T18:05:55.228Z,27.10
2023-05-22T18:08:24.464Z,27.30
2023-05-22T18:10:52.517Z,27.27
2023-05-22T18:13:20.359Z,27.80
2023-05-22T18:15:49.155Z,27.67
2023-05-22T18:18:17.485Z,27.15
2023-05-22T18:20:46.221Z,26.98
2023-05-22T18:23:14.079Z,25.65
2023-05-22T18:25:43.258Z,26.30
2023-05-22T18:28:11.378Z,26.27
2023-05-22T18:30:39.483Z,23.65
2023-05-22T18:33:07.981Z,25.33
2023-05-22T18:35:35.832Z,25.20
2023-05-22T18:38:03.878Z,24.27
2023-05-22T18:40:32.026Z,24.97
2023-05-22T18:43:01.170Z,23.58
2023-05-22T18:45:28.966Z,23.05
2023-05-22T18:47:56.818Z,23.10
2023-05-22T18:50:24.732Z,22.20
2023-05-22T18:52:52.511Z,22.10
2023-05-22T18:55:20.359Z,21.50
2023-05-22T18:57:48.148Z,21.52
2023-05-22T19:00:17.818Z,22.38
2023-05-22T19:02:45.663Z,21.13
2023-05-22T19:05:13.570Z,21.95
2023-05-22T19:07:41.408Z,22.30
2023-05-22T19:10:10.075Z,19.88
2023-05-22T19:12:37.855Z,19.88
2023-05-22T19:15:06.909Z,20.20
2023-05-22T19:17:36.103Z,18.95
2023-05-22T19:20:06.544Z,19.80
2023-05-22T19:22:34.721Z,19.90
2023-05-22T19:25:03.053Z,18.98
2023-05-22T19:27:30.879Z,19.50
2023-05-22T19:29:58.678Z,19.80
2023-05-22T19:32:26.505Z,19.67
2023-05-22T19:34:55.848Z,19.05
2023-05-22T19:37:24.313Z,18.75
2023-05-22T19:39:52.128Z,19.20
2023-05-22T19:42:19.898Z,19.05
2023-05-22T19:44:47.780Z,19.42
2023-05-22T19:47:15.928Z,19.20
2023-05-22T19:49:43.698Z,19.93
2023-05-22T19:52:12.856Z,19.20
2023-05-22T19:54:40.618Z,18.67
2023-05-22T19:57:08.373Z,19.17
2023-05-22T19:59:36.854Z,18.65
2023-05-22T20:02:04.953Z,20.10
2023-05-22T20:04:32.736Z,19.42
2023-05-22T20:07:02.217Z,19.17
2023-05-22T20:09:31.641Z,19.63
2023-05-22T20:11:59.486Z,19.58
2023-05-22T20:14:27.294Z,20.30
2023-05-22T20:16:55.319Z,18.27
2023-05-22T20:19:24.316Z,18.77
2023-05-22T20:21:52.492Z,18.17
2023-05-22T20:24:21.384Z,18.83
2023-05-22T20:31:46.572Z,18.63
2023-05-22T20:34:14.394Z,18.15
2023-05-22T20:36:42.550Z,18.35
2023-05-22T20:39:11.943Z,18.85
2023-05-22T20:41:39.874Z,18.77
2023-05-22T20:44:09.489Z,18.40
2023-05-22T20:46:37.316Z,19.52
2023-05-22T20:49:06.175Z,19.85
2023-05-22T20:51:34.044Z,19.20
2023-05-22T20:54:01.896Z,18.50
2023-05-22T20:56:30.033Z,19.10
2023-05-22T20:58:57.985Z,19.27
2023-05-22T21:01:27.197Z,19.58
2023-05-22T21:03:56.396Z,19.95
2023-05-22T21:06:24.570Z,18.83
2023-05-22T21:08:54.178Z,18.20
2023-05-22T21:11:22.163Z,18.65
2023-05-22T21:13:50.386Z,19.48
2023-05-22T21:16:18.147Z,19.17
2023-05-22T21:18:47.363Z,17.33
2023-05-22T21:21:15.588Z,19.10
2023-05-22T21:23:43.462Z,19.47
2023-05-22T21:26:11.402Z,19.67
2023-05-22T21:28:39.275Z,19.17
2023-05-22T21:31:07.222Z,19.13
2023-05-22T21:33:35.237Z,19.95
2023-05-22T21:36:04.711Z,18.92
2023-05-22T21:38:32.502Z,18.98
2023-05-22T21:41:00.664Z,18.65
2023-05-22T21:43:28.461Z,18.77
2023-05-22T21:45:56.598Z,19.20
2023-05-22T21:48:24.397Z,19.92
2023-05-22T21:50:52.275Z,19.67
2023-05-22T21:53:21.736Z,19.45
2023-05-22T21:55:49.500Z,18.98
2023-05-22T21:58:17.310Z,18.88
2023-05-22T22:00:45.087Z,19.27
2023-05-22T22:03:13.244Z,18.80
2023-05-22T22:05:41.186Z,18.63
2023-05-22T22:08:08.988Z,19.70
2023-05-22T22:10:38.289Z,19.13
2023-05-22T22:13:06.298Z,19.38
2023-05-22T22:15:34.591Z,17.67
2023-05-22T22:18:03.718Z,18.00
2023-05-22T22:20:43.422Z,19.23
2023-05-22T22:23:11.803Z,18.83
2023-05-22T22:25:40.929Z,18.85
2023-05-22T22:30:36.293Z,20.50
2023-05-22T22:33:04.137Z,19.27
2023-05-22T22:35:31.932Z,19.52
2023-05-22T22:37:59.799Z,18.92
2023-05-22T22:40:27.843Z,19.40
2023-05-22T22:42:56.968Z,19.27
2023-05-22T22:45:25.121Z,19.73
2023-05-22T22:47:53.178Z,19.75
2023-05-22T22:50:21.406Z,19.63
2023-05-22T22:52:49.418Z,19.73
2023-05-22T22:55:17.414Z,20.77
2023-05-22T22:57:47.092Z,20.52
2023-05-22T23:00:17.194Z,20.17
2023-05-22T23:02:45.031Z,19.90
2023-05-22T23:05:13.422Z,20.58
2023-05-22T23:07:41.293Z,20.00
2023-05-22T23:10:10.152Z,19.60
2023-05-22T23:12:37.903Z,20.85
2023-05-22T23:15:06.916Z,19.52
2023-05-22T23:17:36.107Z,20.25
2023-05-22T23:20:04.744Z,20.33
2023-05-22T23:22:32.533Z,19.50
2023-05-22T23:25:00.308Z,18.63
2023-05-22T23:27:28.136Z,19.13
2023-05-22T23:29:55.901Z,18.80
2023-05-22T23:32:23.695Z,18.33
2023-05-22T23:34:52.922Z,17.65
2023-05-22T23:39:48.279Z,16.85
2023-05-22T23:42:16.911Z,17.20
2023-05-22T23:44:44.739Z,17.10
2023-05-22T23:47:12.571Z,18.15
2023-05-22T23:49:40.318Z,18.00
2023-05-22T23:52:09.538Z,17.50
2023-05-22T23:57:05.406Z,17.77
2023-05-22T23:59:33.168Z,17.38
